sensor_id;sensor_type;location;lat;lon;timestamp;pressure;altitude;pressure_sealevel;temperature;humidity
36260;BME280;22296;50.824;5.644;2022-12-31T00:00:13;99578.44;;;16.75;58.00
36260;BME280;22296;50.824;5.644;2022-12-31T00:02:40;99564.09;;;16.73;58.26
36260;BME280;22296;50.824;5.644;2022-12-31T00:05:07;99561.66;;;16.71;58.30
36260;BME280;22296;50.824;5.644;2022-12-31T00:07:34;99566.78;;;16.69;58.25
36260;BME280;22296;50.824;5.644;2022-12-31T00:10:01;99562.38;;;16.68;58.25
36260;BME280;22296;50.824;5.644;2022-12-31T00:12:28;99571.91;;;16.67;58.35
36260;BME280;22296;50.824;5.644;2022-12-31T00:14:54;99564.34;;;16.68;58.59
36260;BME280;22296;50.824;5.644;2022-12-31T00:17:21;99559.97;;;16.67;58.62
36260;BME280;22296;50.824;5.644;2022-12-31T00:19:48;99558.34;;;16.66;58.61
36260;BME280;22296;50.824;5.644;2022-12-31T00:22:14;99555.94;;;16.64;58.61
36260;BME280;22296;50.824;5.644;2022-12-31T00:24:41;99545.16;;;16.63;58.58
36260;BME280;22296;50.824;5.644;2022-12-31T00:27:08;99549.56;;;16.64;58.78
36260;BME280;22296;50.824;5.644;2022-12-31T00:29:34;99551.88;;;16.62;58.73
36260;BME280;22296;50.824;5.644;2022-12-31T00:32:01;99553.06;;;16.61;59.00
36260;BME280;22296;50.824;5.644;2022-12-31T00:34:28;99550.28;;;16.61;58.91
36260;BME280;22296;50.824;5.644;2022-12-31T00:36:55;99543.09;;;16.60;58.87
36260;BME280;22296;50.824;5.644;2022-12-31T00:39:21;99541.50;;;16.59;59.10
36260;BME280;22296;50.824;5.644;2022-12-31T00:42:02;99542.28;;;16.59;58.95
36260;BME280;22296;50.824;5.644;2022-12-31T00:44:29;99544.72;;;16.61;58.87
36260;BME280;22296;50.824;5.644;2022-12-31T00:46:55;99537.91;;;16.58;58.80
36260;BME280;22296;50.824;5.644;2022-12-31T00:49:22;99541.13;;;16.60;58.76
36260;BME280;22296;50.824;5.644;2022-12-31T00:51:49;99535.13;;;16.58;58.74
36260;BME280;22296;50.824;5.644;2022-12-31T00:54:16;99539.06;;;16.57;58.96
36260;BME280;22296;50.824;5.644;2022-12-31T00:56:43;99544.63;;;16.57;58.93
36260;BME280;22296;50.824;5.644;2022-12-31T00:59:10;99547.31;;;16.53;59.28
36260;BME280;22296;50.824;5.644;2022-12-31T01:01:38;99546.16;;;16.55;59.07
36260;BME280;22296;50.824;5.644;2022-12-31T01:04:12;99549.38;;;16.57;58.98
36260;BME280;22296;50.824;5.644;2022-12-31T01:06:40;99551.00;;;16.58;59.13
36260;BME280;22296;50.824;5.644;2022-12-31T01:09:08;99547.78;;;16.56;58.95
36260;BME280;22296;50.824;5.644;2022-12-31T01:11:36;99542.22;;;16.56;59.09
36260;BME280;22296;50.824;5.644;2022-12-31T01:14:06;99536.53;;;16.52;59.31
36260;BME280;22296;50.824;5.644;2022-12-31T01:16:41;99521.41;;;16.53;59.30
36260;BME280;22296;50.824;5.644;2022-12-31T01:19:16;99532.50;;;16.49;59.31
36260;BME280;22296;50.824;5.644;2022-12-31T01:21:45;99525.31;;;16.48;59.52
36260;BME280;22296;50.824;5.644;2022-12-31T01:24:12;99531.88;;;16.56;59.19
36260;BME280;22296;50.824;5.644;2022-12-31T01:26:40;99537.69;;;16.51;59.45
36260;BME280;22296;50.824;5.644;2022-12-31T01:29:07;99542.91;;;16.52;59.22
36260;BME280;22296;50.824;5.644;2022-12-31T01:31:35;99538.97;;;16.53;59.12
36260;BME280;22296;50.824;5.644;2022-12-31T01:34:03;99546.03;;;16.51;59.31
36260;BME280;22296;50.824;5.644;2022-12-31T01:36:32;99544.53;;;16.53;59.21
36260;BME280;22296;50.824;5.644;2022-12-31T01:39:00;99536.88;;;16.50;59.37
36260;BME280;22296;50.824;5.644;2022-12-31T01:41:33;99529.25;;;16.47;59.41
36260;BME280;22296;50.824;5.644;2022-12-31T01:44:41;99542.44;;;16.50;59.34
36260;BME280;22296;50.824;5.644;2022-12-31T01:47:01;99556.34;;;16.50;59.26
36260;BME280;22296;50.824;5.644;2022-12-31T01:49:36;99557.97;;;16.51;59.26
36260;BME280;22296;50.824;5.644;2022-12-31T01:52:10;99558.53;;;16.57;59.07
36260;BME280;22296;50.824;5.644;2022-12-31T01:54:49;99551.97;;;16.49;58.99
36260;BME280;22296;50.824;5.644;2022-12-31T01:57:18;99559.84;;;16.47;59.33
36260;BME280;22296;50.824;5.644;2022-12-31T01:59:46;99560.38;;;16.53;58.94
36260;BME280;22296;50.824;5.644;2022-12-31T02:02:14;99574.69;;;16.51;58.96
36260;BME280;22296;50.824;5.644;2022-12-31T02:04:41;99573.06;;;16.50;59.13
36260;BME280;22296;50.824;5.644;2022-12-31T02:07:09;99567.50;;;16.50;59.24
36260;BME280;22296;50.824;5.644;2022-12-31T02:09:38;99582.50;;;16.46;59.13
36260;BME280;22296;50.824;5.644;2022-12-31T02:12:07;99588.88;;;16.46;59.38
36260;BME280;22296;50.824;5.644;2022-12-31T02:14:43;99587.25;;;16.45;59.51
36260;BME280;22296;50.824;5.644;2022-12-31T02:32:29;99602.31;;;16.44;59.61
36260;BME280;22296;50.824;5.644;2022-12-31T02:37:51;99608.69;;;16.45;59.29
36260;BME280;22296;50.824;5.644;2022-12-31T02:40:35;99627.03;;;16.46;59.64
36260;BME280;22296;50.824;5.644;2022-12-31T02:43:15;99634.22;;;16.47;59.31
36260;BME280;22296;50.824;5.644;2022-12-31T02:45:47;99628.28;;;16.48;59.28
36260;BME280;22296;50.824;5.644;2022-12-31T02:48:32;99633.41;;;16.46;59.39
36260;BME280;22296;50.824;5.644;2022-12-31T02:56:36;99629.25;;;16.40;59.65
36260;BME280;22296;50.824;5.644;2022-12-31T02:59:09;99624.50;;;16.41;59.72
36260;BME280;22296;50.824;5.644;2022-12-31T03:02:12;99630.91;;;16.41;59.65
36260;BME280;22296;50.824;5.644;2022-12-31T03:04:45;99631.06;;;16.48;59.43
36260;BME280;22296;50.824;5.644;2022-12-31T03:07:18;99627.38;;;16.44;59.65
36260;BME280;22296;50.824;5.644;2022-12-31T03:09:46;99642.28;;;16.52;59.30
36260;BME280;22296;50.824;5.644;2022-12-31T03:12:13;99634.41;;;16.54;59.25
36260;BME280;22296;50.824;5.644;2022-12-31T03:14:59;99634.13;;;16.43;59.51
36260;BME280;22296;50.824;5.644;2022-12-31T03:17:26;99640.66;;;16.51;59.12
36260;BME280;22296;50.824;5.644;2022-12-31T03:19:53;99632.22;;;16.47;59.43
36260;BME280;22296;50.824;5.644;2022-12-31T03:22:40;99624.59;;;16.44;59.80
36260;BME280;22296;50.824;5.644;2022-12-31T03:27:54;99624.78;;;16.51;59.24
36260;BME280;22296;50.824;5.644;2022-12-31T03:30:22;99622.72;;;16.48;59.49
36260;BME280;22296;50.824;5.644;2022-12-31T03:32:49;99612.38;;;16.49;59.35
36260;BME280;22296;50.824;5.644;2022-12-31T03:35:19;99619.00;;;16.44;59.54
36260;BME280;22296;50.824;5.644;2022-12-31T03:37:47;99630.53;;;16.43;59.54
36260;BME280;22296;50.824;5.644;2022-12-31T03:40:14;99626.81;;;16.39;59.53
36260;BME280;22296;50.824;5.644;2022-12-31T03:42:41;99615.06;;;16.45;59.45
36260;BME280;22296;50.824;5.644;2022-12-31T03:45:09;99640.41;;;16.40;59.76
36260;BME280;22296;50.824;5.644;2022-12-31T03:47:36;99636.47;;;16.41;59.64
36260;BME280;22296;50.824;5.644;2022-12-31T03:50:04;99640.41;;;16.40;59.80
36260;BME280;22296;50.824;5.644;2022-12-31T03:52:31;99646.47;;;16.30;60.12
36260;BME280;22296;50.824;5.644;2022-12-31T03:54:58;99635.00;;;16.32;60.04
36260;BME280;22296;50.824;5.644;2022-12-31T03:57:24;99647.38;;;16.34;60.03
36260;BME280;22296;50.824;5.644;2022-12-31T03:59:51;99641.81;;;16.34;59.72
36260;BME280;22296;50.824;5.644;2022-12-31T04:02:18;99645.22;;;16.28;60.10
36260;BME280;22296;50.824;5.644;2022-12-31T04:04:53;99629.06;;;16.33;59.93
36260;BME280;22296;50.824;5.644;2022-12-31T04:07:20;99637.34;;;16.30;59.93
36260;BME280;22296;50.824;5.644;2022-12-31T04:09:46;99638.13;;;16.30;60.22
36260;BME280;22296;50.824;5.644;2022-12-31T04:12:13;99641.63;;;16.27;60.27
36260;BME280;22296;50.824;5.644;2022-12-31T04:14:40;99649.72;;;16.32;60.02
36260;BME280;22296;50.824;5.644;2022-12-31T04:17:07;99656.44;;;16.31;60.02
36260;BME280;22296;50.824;5.644;2022-12-31T04:19:34;99656.44;;;16.31;59.99
36260;BME280;22296;50.824;5.644;2022-12-31T04:22:01;99652.50;;;16.32;59.80
36260;BME280;22296;50.824;5.644;2022-12-31T04:24:27;99661.56;;;16.29;60.01
36260;BME280;22296;50.824;5.644;2022-12-31T04:26:54;99661.56;;;16.29;60.01
36260;BME280;22296;50.824;5.644;2022-12-31T04:29:21;99667.84;;;16.26;60.10
36260;BME280;22296;50.824;5.644;2022-12-31T04:31:48;99663.00;;;16.23;60.12
36260;BME280;22296;50.824;5.644;2022-12-31T04:34:15;99654.22;;;16.21;60.14
36260;BME280;22296;50.824;5.644;2022-12-31T04:36:42;99662.56;;;16.21;59.94
36260;BME280;22296;50.824;5.644;2022-12-31T04:39:09;99664.59;;;16.24;60.16
36260;BME280;22296;50.824;5.644;2022-12-31T04:41:35;99663.81;;;16.24;60.32
36260;BME280;22296;50.824;5.644;2022-12-31T04:44:02;99667.75;;;16.23;60.33
36260;BME280;22296;50.824;5.644;2022-12-31T04:46:30;99677.34;;;16.25;59.99
36260;BME280;22296;50.824;5.644;2022-12-31T04:48:58;99686.50;;;16.26;59.90
36260;BME280;22296;50.824;5.644;2022-12-31T04:51:27;99676.53;;;16.25;60.05
36260;BME280;22296;50.824;5.644;2022-12-31T04:53:54;99679.69;;;16.23;60.03
36260;BME280;22296;50.824;5.644;2022-12-31T04:56:21;99682.81;;;16.22;60.08
36260;BME280;22296;50.824;5.644;2022-12-31T04:58:48;99689.91;;;16.19;60.16
36260;BME280;22296;50.824;5.644;2022-12-31T05:01:15;99690.81;;;16.23;60.04
36260;BME280;22296;50.824;5.644;2022-12-31T05:03:43;99680.03;;;16.22;59.90
36260;BME280;22296;50.824;5.644;2022-12-31T05:06:15;99685.69;;;16.25;59.90
36260;BME280;22296;50.824;5.644;2022-12-31T05:08:42;99681.38;;;16.28;59.86
36260;BME280;22296;50.824;5.644;2022-12-31T05:11:10;99679.09;;;16.30;59.77
36260;BME280;22296;50.824;5.644;2022-12-31T05:13:37;99690.09;;;16.26;59.91
36260;BME280;22296;50.824;5.644;2022-12-31T05:16:04;99680.75;;;16.19;60.44
36260;BME280;22296;50.824;5.644;2022-12-31T05:18:31;99676.72;;;16.16;60.34
36260;BME280;22296;50.824;5.644;2022-12-31T05:20:59;99688.13;;;16.27;59.84
36260;BME280;22296;50.824;5.644;2022-12-31T05:23:26;99687.06;;;16.31;59.63
36260;BME280;22296;50.824;5.644;2022-12-31T05:25:53;99685.25;;;16.23;59.95
36260;BME280;22296;50.824;5.644;2022-12-31T05:28:20;99688.75;;;16.20;59.93
36260;BME280;22296;50.824;5.644;2022-12-31T05:30:48;99693.16;;;16.21;60.18
36260;BME280;22296;50.824;5.644;2022-12-31T05:33:16;99688.31;;;16.18;60.10
36260;BME280;22296;50.824;5.644;2022-12-31T05:35:43;99695.13;;;16.21;59.87
36260;BME280;22296;50.824;5.644;2022-12-31T05:38:10;99710.91;;;16.17;60.09
36260;BME280;22296;50.824;5.644;2022-12-31T05:40:38;99726.44;;;16.18;60.33
36260;BME280;22296;50.824;5.644;2022-12-31T05:43:05;99723.50;;;16.26;59.75
36260;BME280;22296;50.824;5.644;2022-12-31T05:45:31;99712.38;;;16.26;59.90
36260;BME280;22296;50.824;5.644;2022-12-31T05:47:58;99711.44;;;16.22;59.92
36260;BME280;22296;50.824;5.644;2022-12-31T05:50:25;99720.22;;;16.24;59.74
36260;BME280;22296;50.824;5.644;2022-12-31T05:52:55;99736.94;;;16.24;59.91
36260;BME280;22296;50.824;5.644;2022-12-31T05:55:22;99734.16;;;16.24;59.79
36260;BME280;22296;50.824;5.644;2022-12-31T05:57:49;99740.88;;;16.23;59.74
36260;BME280;22296;50.824;5.644;2022-12-31T06:00:16;99746.47;;;16.23;59.76
36260;BME280;22296;50.824;5.644;2022-12-31T06:02:43;99750.38;;;16.22;59.75
36260;BME280;22296;50.824;5.644;2022-12-31T06:05:10;99746.47;;;16.23;59.74
36260;BME280;22296;50.824;5.644;2022-12-31T06:07:37;99736.94;;;16.24;59.78
36260;BME280;22296;50.824;5.644;2022-12-31T06:10:05;99753.63;;;16.24;59.74
36260;BME280;22296;50.824;5.644;2022-12-31T06:12:31;99752.03;;;16.23;59.72
36260;BME280;22296;50.824;5.644;2022-12-31T06:14:58;99767.19;;;16.26;59.70
36260;BME280;22296;50.824;5.644;2022-12-31T06:17:25;99765.94;;;16.23;59.62
36260;BME280;22296;50.824;5.644;2022-12-31T06:19:52;99776.69;;;16.25;59.73
36260;BME280;22296;50.824;5.644;2022-12-31T06:22:19;99770.16;;;16.33;59.33
36260;BME280;22296;50.824;5.644;2022-12-31T06:24:45;99778.44;;;16.29;59.58
36260;BME280;22296;50.824;5.644;2022-12-31T06:27:12;99771.81;;;16.22;59.78
36260;BME280;22296;50.824;5.644;2022-12-31T06:29:39;99781.44;;;16.24;59.63
36260;BME280;22296;50.824;5.644;2022-12-31T06:32:06;99775.69;;;16.17;59.87
36260;BME280;22296;50.824;5.644;2022-12-31T06:34:32;99771.22;;;16.28;59.34
36260;BME280;22296;50.824;5.644;2022-12-31T06:36:59;99779.47;;;16.25;59.71
36260;BME280;22296;50.824;5.644;2022-12-31T06:39:26;99778.66;;;16.24;59.37
36260;BME280;22296;50.824;5.644;2022-12-31T06:41:53;99774.28;;;16.23;59.72
36260;BME280;22296;50.824;5.644;2022-12-31T06:44:20;99771.81;;;16.22;59.72
36260;BME280;22296;50.824;5.644;2022-12-31T06:46:49;99782.72;;;16.27;59.46
36260;BME280;22296;50.824;5.644;2022-12-31T06:49:16;99770.94;;;16.18;59.58
36260;BME280;22296;50.824;5.644;2022-12-31T06:51:43;99773.81;;;16.21;59.46
36260;BME280;22296;50.824;5.644;2022-12-31T06:54:12;99776.59;;;16.21;59.45
36260;BME280;22296;50.824;5.644;2022-12-31T06:56:39;99783.06;;;16.25;59.57
36260;BME280;22296;50.824;5.644;2022-12-31T06:59:23;99773.56;;;16.26;59.48
36260;BME280;22296;50.824;5.644;2022-12-31T07:02:34;99778.22;;;16.22;59.38
36260;BME280;22296;50.824;5.644;2022-12-31T07:15:35;99766.75;;;16.24;59.41
36260;BME280;22296;50.824;5.644;2022-12-31T07:18:14;99771.13;;;16.25;59.50
36260;BME280;22296;50.824;5.644;2022-12-31T07:20:45;99774.97;;;16.20;59.61
36260;BME280;22296;50.824;5.644;2022-12-31T07:23:12;99775.88;;;16.24;59.20
36260;BME280;22296;50.824;5.644;2022-12-31T07:25:47;99778.91;;;16.19;59.56
36260;BME280;22296;50.824;5.644;2022-12-31T07:28:38;99783.66;;;16.19;59.43
36260;BME280;22296;50.824;5.644;2022-12-31T07:34:30;99800.63;;;16.14;59.74
36260;BME280;22296;50.824;5.644;2022-12-31T07:37:12;99813.94;;;16.20;59.41
36260;BME280;22296;50.824;5.644;2022-12-31T07:39:49;99808.69;;;16.19;59.46
36260;BME280;22296;50.824;5.644;2022-12-31T07:45:27;99793.53;;;16.16;59.91
36260;BME280;22296;50.824;5.644;2022-12-31T07:47:57;99804.44;;;16.21;59.66
36260;BME280;22296;50.824;5.644;2022-12-31T07:50:28;99806.53;;;16.40;59.37
36260;BME280;22296;50.824;5.644;2022-12-31T07:52:55;99798.47;;;16.50;59.11
36260;BME280;22296;50.824;5.644;2022-12-31T07:55:22;99813.53;;;16.62;58.84
36260;BME280;22296;50.824;5.644;2022-12-31T07:58:26;99825.47;;;16.62;59.07
36260;BME280;22296;50.824;5.644;2022-12-31T08:00:51;99809.06;;;16.73;58.86
36260;BME280;22296;50.824;5.644;2022-12-31T08:06:10;99818.03;;;16.82;58.65
36260;BME280;22296;50.824;5.644;2022-12-31T08:11:35;99823.28;;;16.99;58.28
36260;BME280;22296;50.824;5.644;2022-12-31T08:14:07;99827.88;;;17.07;58.23
36260;BME280;22296;50.824;5.644;2022-12-31T08:16:35;99826.47;;;17.13;57.89
36260;BME280;22296;50.824;5.644;2022-12-31T08:19:03;99826.19;;;17.18;57.72
36260;BME280;22296;50.824;5.644;2022-12-31T08:21:43;99833.09;;;17.24;57.96
36260;BME280;22296;50.824;5.644;2022-12-31T08:29:57;99859.34;;;17.39;57.47
36260;BME280;22296;50.824;5.644;2022-12-31T08:44:45;99862.75;;;17.48;57.44
36260;BME280;22296;50.824;5.644;2022-12-31T08:49:52;99856.75;;;17.61;57.17
36260;BME280;22296;50.824;5.644;2022-12-31T08:52:23;99872.38;;;17.66;56.97
36260;BME280;22296;50.824;5.644;2022-12-31T08:54:51;99866.47;;;17.68;57.15
36260;BME280;22296;50.824;5.644;2022-12-31T09:00:06;99877.63;;;17.68;57.22
36260;BME280;22296;50.824;5.644;2022-12-31T09:10:39;99900.97;;;17.79;56.77
36260;BME280;22296;50.824;5.644;2022-12-31T09:18:14;99916.28;;;17.85;56.72
36260;BME280;22296;50.824;5.644;2022-12-31T09:20:41;99919.59;;;17.90;56.76
36260;BME280;22296;50.824;5.644;2022-12-31T09:23:11;99932.28;;;17.88;56.90
36260;BME280;22296;50.824;5.644;2022-12-31T09:25:46;99928.41;;;17.92;56.65
36260;BME280;22296;50.824;5.644;2022-12-31T09:31:03;99946.41;;;17.95;56.64
36260;BME280;22296;50.824;5.644;2022-12-31T09:33:50;99938.84;;;17.95;56.67
36260;BME280;22296;50.824;5.644;2022-12-31T09:36:29;99946.09;;;18.00;56.49
36260;BME280;22296;50.824;5.644;2022-12-31T09:39:14;99956.53;;;18.03;56.71
36260;BME280;22296;50.824;5.644;2022-12-31T09:50:36;99967.88;;;18.10;56.19
36260;BME280;22296;50.824;5.644;2022-12-31T10:01:41;99980.47;;;18.19;56.23
36260;BME280;22296;50.824;5.644;2022-12-31T10:04:34;99984.97;;;18.24;56.10
36260;BME280;22296;50.824;5.644;2022-12-31T10:07:27;99975.34;;;18.21;55.77
36260;BME280;22296;50.824;5.644;2022-12-31T10:10:23;99956.63;;;18.22;56.30
36260;BME280;22296;50.824;5.644;2022-12-31T10:27:18;99973.22;;;18.34;56.17
36260;BME280;22296;50.824;5.644;2022-12-31T10:29:58;99965.31;;;18.36;56.00
36260;BME280;22296;50.824;5.644;2022-12-31T10:35:42;99967.09;;;18.44;55.86
36260;BME280;22296;50.824;5.644;2022-12-31T11:27:15;99979.81;;;18.76;55.27
36260;BME280;22296;50.824;5.644;2022-12-31T11:35:51;99980.38;;;18.86;55.11
36260;BME280;22296;50.824;5.644;2022-12-31T11:41:04;99975.13;;;19.00;54.84
36260;BME280;22296;50.824;5.644;2022-12-31T11:43:52;99994.50;;;18.93;55.20
36260;BME280;22296;50.824;5.644;2022-12-31T11:46:46;99983.75;;;18.95;55.22
36260;BME280;22296;50.824;5.644;2022-12-31T11:55:29;99987.47;;;18.99;55.18
36260;BME280;22296;50.824;5.644;2022-12-31T11:58:03;99998.97;;;18.97;55.05
36260;BME280;22296;50.824;5.644;2022-12-31T12:00:33;99998.72;;;19.02;55.29
36260;BME280;22296;50.824;5.644;2022-12-31T12:03:02;100006.63;;;19.00;55.07
36260;BME280;22296;50.824;5.644;2022-12-31T12:05:30;100006.72;;;19.04;55.22
36260;BME280;22296;50.824;5.644;2022-12-31T12:07:59;99994.38;;;19.05;55.27
36260;BME280;22296;50.824;5.644;2022-12-31T12:13:16;99996.28;;;19.01;55.02
36260;BME280;22296;50.824;5.644;2022-12-31T12:15:50;99997.91;;;19.02;54.90
36260;BME280;22296;50.824;5.644;2022-12-31T12:20:51;99992.31;;;19.02;55.28
36260;BME280;22296;50.824;5.644;2022-12-31T12:23:25;100001.13;;;19.04;55.13
36260;BME280;22296;50.824;5.644;2022-12-31T12:25:51;100007.16;;;19.06;55.31
36260;BME280;22296;50.824;5.644;2022-12-31T12:28:20;100011.66;;;19.10;54.84
36260;BME280;22296;50.824;5.644;2022-12-31T12:31:01;100021.13;;;19.06;55.02
36260;BME280;22296;50.824;5.644;2022-12-31T12:33:39;100038.78;;;19.10;55.12
36260;BME280;22296;50.824;5.644;2022-12-31T12:36:12;100053.94;;;19.09;54.94
36260;BME280;22296;50.824;5.644;2022-12-31T12:38:39;100035.56;;;19.08;55.00
36260;BME280;22296;50.824;5.644;2022-12-31T12:41:11;100043.47;;;19.06;55.06
36260;BME280;22296;50.824;5.644;2022-12-31T12:43:44;100025.97;;;19.09;55.45
36260;BME280;22296;50.824;5.644;2022-12-31T12:46:28;100022.00;;;19.10;55.22
36260;BME280;22296;50.824;5.644;2022-12-31T12:48:57;100018.06;;;19.11;54.83
36260;BME280;22296;50.824;5.644;2022-12-31T12:57:08;100031.66;;;19.12;55.13
36260;BME280;22296;50.824;5.644;2022-12-31T13:16:03;100026.56;;;19.18;54.98
36260;BME280;22296;50.824;5.644;2022-12-31T13:19:17;100016.72;;;19.24;54.87
36260;BME280;22296;50.824;5.644;2022-12-31T13:22:22;100022.31;;;19.24;54.97
36260;BME280;22296;50.824;5.644;2022-12-31T13:30:05;100013.91;;;19.24;55.06
36260;BME280;22296;50.824;5.644;2022-12-31T13:32:49;100027.16;;;19.27;54.89
36260;BME280;22296;50.824;5.644;2022-12-31T13:37:48;100010.38;;;19.27;54.74
36260;BME280;22296;50.824;5.644;2022-12-31T13:40:24;100005.53;;;19.24;54.91
36260;BME280;22296;50.824;5.644;2022-12-31T13:46:00;99999.94;;;19.24;54.87
36260;BME280;22296;50.824;5.644;2022-12-31T13:48:36;99997.56;;;19.26;55.06
36260;BME280;22296;50.824;5.644;2022-12-31T13:51:45;99988.03;;;19.27;55.11
36260;BME280;22296;50.824;5.644;2022-12-31T13:54:43;99972.88;;;19.28;54.89
36260;BME280;22296;50.824;5.644;2022-12-31T13:59:58;99980.13;;;19.32;54.66
36260;BME280;22296;50.824;5.644;2022-12-31T14:07:47;99982.50;;;19.30;54.89
36260;BME280;22296;50.824;5.644;2022-12-31T14:10:20;99973.31;;;19.30;54.93
36260;BME280;22296;50.824;5.644;2022-12-31T14:13:29;99976.53;;;19.32;54.64
36260;BME280;22296;50.824;5.644;2022-12-31T14:16:42;99983.38;;;19.34;54.70
36260;BME280;22296;50.824;5.644;2022-12-31T14:20:05;99966.59;;;19.34;54.70
36260;BME280;22296;50.824;5.644;2022-12-31T14:25:52;99978.59;;;19.35;55.04
36260;BME280;22296;50.824;5.644;2022-12-31T14:28:29;99973.00;;;19.35;55.04
36260;BME280;22296;50.824;5.644;2022-12-31T14:33:56;99969.03;;;19.36;54.61
36260;BME280;22296;50.824;5.644;2022-12-31T14:39:17;99973.31;;;19.30;54.76
36260;BME280;22296;50.824;5.644;2022-12-31T14:41:52;99969.78;;;19.33;54.78
36260;BME280;22296;50.824;5.644;2022-12-31T14:44:31;99971.31;;;19.30;54.73
36260;BME280;22296;50.824;5.644;2022-12-31T14:57:42;99989.78;;;19.35;54.80
36260;BME280;22296;50.824;5.644;2022-12-31T15:05:53;99989.78;;;19.35;54.86
36260;BME280;22296;50.824;5.644;2022-12-31T15:08:34;99991.75;;;19.34;54.96
36260;BME280;22296;50.824;5.644;2022-12-31T15:13:55;99982.84;;;19.29;54.92
36260;BME280;22296;50.824;5.644;2022-12-31T15:25:36;99977.34;;;19.32;55.01
36260;BME280;22296;50.824;5.644;2022-12-31T15:28:26;99982.63;;;19.38;54.54
36260;BME280;22296;50.824;5.644;2022-12-31T15:31:00;99988.16;;;19.34;54.88
36260;BME280;22296;50.824;5.644;2022-12-31T15:33:32;99981.03;;;19.37;54.81
36260;BME280;22296;50.824;5.644;2022-12-31T15:36:16;99975.78;;;19.35;54.56
36260;BME280;22296;50.824;5.644;2022-12-31T15:38:48;99973.91;;;19.39;54.80
36260;BME280;22296;50.824;5.644;2022-12-31T15:44:07;99978.75;;;19.42;54.63
36260;BME280;22296;50.824;5.644;2022-12-31T15:46:40;99975.97;;;19.42;54.39
36260;BME280;22296;50.824;5.644;2022-12-31T15:49:16;99981.09;;;19.40;54.61
36260;BME280;22296;50.824;5.644;2022-12-31T15:51:49;99984.28;;;19.39;54.84
36260;BME280;22296;50.824;5.644;2022-12-31T15:54:37;99988.75;;;19.43;54.58
36260;BME280;22296;50.824;5.644;2022-12-31T15:57:06;99978.03;;;19.45;54.37
36260;BME280;22296;50.824;5.644;2022-12-31T15:59:38;99980.88;;;19.49;54.22
36260;BME280;22296;50.824;5.644;2022-12-31T16:02:23;99986.03;;;19.47;54.53
36260;BME280;22296;50.824;5.644;2022-12-31T16:04:52;99977.84;;;19.38;54.71
36260;BME280;22296;50.824;5.644;2022-12-31T16:07:22;99990.69;;;19.39;54.69
36260;BME280;22296;50.824;5.644;2022-12-31T16:09:52;99988.31;;;19.41;54.49
36260;BME280;22296;50.824;5.644;2022-12-31T16:12:26;99986.69;;;19.40;54.63
36260;BME280;22296;50.824;5.644;2022-12-31T16:14:59;99992.28;;;19.40;54.33
36260;BME280;22296;50.824;5.644;2022-12-31T16:19:57;99993.03;;;19.37;54.51
36260;BME280;22296;50.824;5.644;2022-12-31T16:22:35;100008.91;;;19.33;54.69
36260;BME280;22296;50.824;5.644;2022-12-31T16:25:03;100003.75;;;19.35;54.91
36260;BME280;22296;50.824;5.644;2022-12-31T16:27:51;99996.09;;;19.32;54.50
36260;BME280;22296;50.824;5.644;2022-12-31T16:30:29;99991.41;;;19.36;54.75
36260;BME280;22296;50.824;5.644;2022-12-31T16:32:59;99983.81;;;19.37;54.41
36260;BME280;22296;50.824;5.644;2022-12-31T16:35:32;99980.94;;;19.33;54.60
36260;BME280;22296;50.824;5.644;2022-12-31T16:38:15;99983.44;;;19.38;54.32
36260;BME280;22296;50.824;5.644;2022-12-31T16:41:18;99994.53;;;19.34;54.56
36260;BME280;22296;50.824;5.644;2022-12-31T16:43:47;99989.78;;;19.35;54.56
36260;BME280;22296;50.824;5.644;2022-12-31T16:46:23;99987.44;;;19.37;54.48
36260;BME280;22296;50.824;5.644;2022-12-31T16:49:03;99992.28;;;19.40;54.36
36260;BME280;22296;50.824;5.644;2022-12-31T16:51:33;99983.44;;;19.38;54.37
36260;BME280;22296;50.824;5.644;2022-12-31T16:54:01;99989.03;;;19.38;54.51
36260;BME280;22296;50.824;5.644;2022-12-31T16:56:32;99993.09;;;19.41;54.31
36260;BME280;22296;50.824;5.644;2022-12-31T16:59:26;99979.03;;;19.37;54.19
36260;BME280;22296;50.824;5.644;2022-12-31T17:01:59;99969.03;;;19.36;54.22
36260;BME280;22296;50.824;5.644;2022-12-31T17:04:27;99974.63;;;19.36;54.41
36260;BME280;22296;50.824;5.644;2022-12-31T17:07:38;99977.84;;;19.38;54.30
36260;BME280;22296;50.824;5.644;2022-12-31T17:10:14;99979.50;;;19.39;54.29
36260;BME280;22296;50.824;5.644;2022-12-31T17:12:44;99965.94;;;19.41;54.17
36260;BME280;22296;50.824;5.644;2022-12-31T17:15:40;99962.84;;;19.46;53.86
36260;BME280;22296;50.824;5.644;2022-12-31T17:18:16;99966.03;;;19.45;54.10
36260;BME280;22296;50.824;5.644;2022-12-31T17:20:43;99966.84;;;19.45;54.33
36260;BME280;22296;50.824;5.644;2022-12-31T17:23:22;99960.50;;;19.48;53.93
36260;BME280;22296;50.824;5.644;2022-12-31T17:25:57;99965.34;;;19.51;53.78
36260;BME280;22296;50.824;5.644;2022-12-31T17:28:25;99976.53;;;19.51;54.01
36260;BME280;22296;50.824;5.644;2022-12-31T17:30:58;99987.72;;;19.51;53.74
36260;BME280;22296;50.824;5.644;2022-12-31T17:33:27;99981.41;;;19.54;53.91
36260;BME280;22296;50.824;5.644;2022-12-31T17:36:12;99970.25;;;19.58;53.92
36260;BME280;22296;50.824;5.644;2022-12-31T17:38:40;99981.88;;;19.60;53.56
36260;BME280;22296;50.824;5.644;2022-12-31T17:41:26;99979.03;;;19.56;53.63
36260;BME280;22296;50.824;5.644;2022-12-31T17:43:54;99982.69;;;19.60;53.64
36260;BME280;22296;50.824;5.644;2022-12-31T17:46:22;99985.13;;;19.62;53.52
36260;BME280;22296;50.824;5.644;2022-12-31T17:48:55;99980.63;;;19.57;53.64
36260;BME280;22296;50.824;5.644;2022-12-31T17:51:22;99972.63;;;19.56;53.78
36260;BME280;22296;50.824;5.644;2022-12-31T17:53:50;99968.69;;;19.60;53.70
36260;BME280;22296;50.824;5.644;2022-12-31T17:56:18;99971.13;;;19.62;53.45
36260;BME280;22296;50.824;5.644;2022-12-31T17:58:48;99969.06;;;19.59;53.56
36260;BME280;22296;50.824;5.644;2022-12-31T18:01:18;99960.75;;;19.62;53.62
36260;BME280;22296;50.824;5.644;2022-12-31T18:03:46;99965.47;;;19.58;53.61